createdAt,value
2018-04-15T00:00:47.745Z,68.93
2018-04-15T00:01:56.578Z,68.65
2018-04-15T00:03:05.683Z,68.46
2018-04-15T00:04:14.516Z,68.36
2018-04-15T00:05:23.346Z,67.88
2018-04-15T00:06:32.325Z,67.22
2018-04-15T00:07:41.159Z,67.13
2018-04-15T00:08:49.988Z,65.99
2018-04-15T00:09:58.819Z,65.99
2018-04-15T00:11:07.651Z,65.22
2018-04-15T00:12:16.483Z,65.03
2018-04-15T00:13:25.316Z,64.37
2018-04-15T00:14:34.145Z,64.65
2018-04-15T00:15:43.526Z,64.65
2018-04-15T00:16:52.910Z,65.13
2018-04-15T00:18:01.745Z,65.41
2018-04-15T00:19:10.576Z,65.13
2018-04-15T00:20:19.408Z,64.94
2018-04-15T00:21:28.239Z,65.22
2018-04-15T00:22:37.069Z,65.09
2018-04-15T00:23:46.173Z,65
2018-04-15T00:24:55.004Z,65.47
2018-04-15T00:26:04.109Z,64.9
2018-04-15T00:27:12.937Z,65
2018-04-15T00:28:21.766Z,66.05
2018-04-15T00:29:30.896Z,65.19
2018-04-15T00:30:39.725Z,65.67
2018-04-15T00:31:48.557Z,65.57
2018-04-15T00:32:57.388Z,65.95
2018-04-15T00:34:06.218Z,65.47
2018-04-15T00:35:15.522Z,65.47
2018-04-15T00:36:24.635Z,65.76
2018-04-15T00:37:34.017Z,65.76
2018-04-15T00:38:42.850Z,66.05
2018-04-15T00:39:51.682Z,65.47
2018-04-15T00:41:00.760Z,65.67
2018-04-15T00:42:09.590Z,65.57
2018-04-15T00:43:18.418Z,65
2018-04-15T00:44:27.251Z,64.72
2018-04-15T00:45:36.076Z,64.9
2018-04-15T00:46:45.056Z,65
2018-04-15T00:47:54.166Z,65.38
2018-04-15T00:49:02.999Z,65.57
2018-04-15T00:50:11.827Z,64.14
2018-04-15T00:51:20.654Z,62.34
2018-04-15T00:52:30.076Z,61.96
2018-04-15T00:53:39.180Z,61.87
2018-04-15T00:54:48.013Z,61.77
2018-04-15T00:55:56.842Z,62.15
2018-04-15T00:57:05.674Z,62.15
2018-04-15T00:58:14.503Z,62.24
2018-04-15T00:59:23.332Z,62.05
2018-04-15T01:00:32.160Z,61.87
2018-04-15T01:01:40.990Z,62.15
2018-04-15T01:02:50.093Z,62.05
2018-04-15T01:03:59.503Z,61.58
2018-04-15T01:05:08.612Z,61.58
2018-04-15T01:06:17.439Z,61.77
2018-04-15T01:07:26.270Z,61.96
2018-04-15T01:08:35.383Z,61.77
2018-04-15T01:09:44.591Z,61.2
2018-04-15T01:10:53.697Z,61.68
2018-04-15T01:12:02.799Z,61.1
2018-04-15T01:13:11.627Z,60.44
2018-04-15T01:14:20.458Z,60.06
2018-04-15T01:15:29.439Z,59.96
2018-04-15T01:16:38.267Z,60.06
2018-04-15T01:17:47.100Z,60.25
2018-04-15T01:18:55.931Z,59.96
2018-04-15T01:20:04.781Z,60.35
2018-04-15T01:21:13.616Z,60.35
2018-04-15T01:22:22.721Z,60.35
2018-04-15T01:23:31.556Z,60.25
2018-04-15T01:24:40.653Z,60.25
2018-04-15T01:25:49.480Z,60.16
2018-04-15T01:26:58.410Z,59.96
2018-04-15T01:28:07.242Z,59.58
2018-04-15T01:29:16.073Z,59.11
2018-04-15T01:30:24.909Z,58.83
2018-04-15T01:31:34.019Z,59.3
2018-04-15T01:32:42.899Z,58.73
2018-04-15T01:33:51.723Z,58.63
2018-04-15T01:35:00.553Z,57.78
2018-04-15T01:36:09.386Z,58.06
2018-04-15T01:37:18.216Z,57.78
2018-04-15T01:38:27.194Z,57.5
2018-04-15T01:39:36.586Z,57.87
2018-04-15T01:40:45.414Z,57.87
2018-04-15T01:41:54.244Z,57.97
2018-04-15T01:43:03.070Z,57.87
2018-04-15T01:44:12.103Z,58.83
2018-04-15T01:45:20.925Z,57.97
2018-04-15T01:46:29.753Z,57.68
2018-04-15T01:47:38.586Z,57.5
2018-04-15T01:48:47.417Z,57.87
2018-04-15T01:49:56.544Z,57.97
2018-04-15T01:51:05.375Z,58.06
2018-04-15T01:52:14.200Z,57.87
2018-04-15T01:53:23.028Z,57.5
2018-04-15T01:54:31.859Z,57.87
2018-04-15T01:55:40.839Z,58.63
2018-04-15T01:56:49.954Z,58.44
2018-04-15T01:57:59.056Z,58.83
2018-04-15T01:59:07.884Z,58.83
2018-04-15T02:00:17.265Z,58.06
2018-04-15T02:01:26.297Z,58.06
2018-04-15T02:02:35.128Z,57.87
2018-04-15T02:03:43.954Z,58.54
2018-04-15T02:04:52.784Z,58.35
2018-04-15T02:06:01.617Z,57.97
2018-04-15T02:07:10.592Z,57.87
2018-04-15T02:08:19.698Z,57.87
2018-04-15T02:09:28.528Z,58.63
2018-04-15T02:10:37.632Z,57.59
2018-04-15T02:11:46.512Z,57.68
2018-04-15T02:12:55.442Z,57.68
2018-04-15T02:14:04.838Z,57.5
2018-04-15T02:15:13.665Z,57.4
2018-04-15T02:16:22.495Z,56.83
2018-04-15T02:17:31.325Z,56.45
2018-04-15T02:18:40.454Z,56.26
2018-04-15T02:19:49.284Z,55.69
2018-04-15T02:20:58.396Z,55.11
2018-04-15T02:22:07.226Z,55.3
2018-04-15T02:23:16.058Z,55.3
2018-04-15T02:24:25.319Z,54.93
2018-04-15T02:25:34.148Z,54.83
2018-04-15T02:26:42.971Z,54.83
2018-04-15T02:27:51.810Z,54.36
2018-04-15T02:29:00.634Z,54.74
2018-04-15T02:30:09.563Z,54.17
2018-04-15T02:31:18.671Z,53.88
2018-04-15T02:32:27.779Z,53.88
2018-04-15T02:33:36.611Z,53.59
2018-04-15T02:34:45.440Z,52.84
2018-04-15T02:35:54.473Z,53.78
2018-04-15T02:37:03.313Z,53.12
2018-04-15T02:38:12.421Z,53.03
2018-04-15T02:39:21.812Z,52.74
2018-04-15T02:40:30.644Z,52.64
2018-04-15T02:41:39.796Z,52.26
2018-04-15T02:42:48.628Z,52.17
2018-04-15T02:43:58.292Z,52.08
2018-04-15T02:45:07.683Z,52.17
2018-04-15T02:46:16.519Z,52.45
2018-04-15T02:47:25.786Z,52.36
2018-04-15T02:48:34.626Z,52.17
2018-04-15T02:49:43.734Z,52.26
2018-04-15T02:50:52.848Z,52.45
2018-04-15T02:52:01.686Z,52.64
2018-04-15T02:53:11.217Z,53.03
2018-04-15T02:54:20.052Z,53.22
2018-04-15T02:55:29.158Z,52.64
2018-04-15T02:56:38.271Z,52.55
2018-04-15T02:57:47.098Z,53.12
2018-04-15T02:58:56.258Z,53.31
2018-04-15T03:00:05.361Z,53.5
2018-04-15T03:01:14.471Z,52.84
2018-04-15T03:02:23.573Z,53.03
2018-04-15T03:03:32.407Z,53.03
2018-04-15T03:04:41.578Z,53.41
2018-04-15T03:05:50.687Z,53.41
2018-04-15T03:06:59.517Z,52.93
2018-04-15T03:08:08.650Z,53.88
2018-04-15T03:09:17.756Z,53.88
2018-04-15T03:10:26.864Z,53.78
2018-04-15T03:11:35.694Z,53.97
2018-04-15T03:12:44.802Z,53.78
2018-04-15T03:13:53.907Z,53.69
2018-04-15T03:15:03.010Z,53.12
2018-04-15T03:16:11.842Z,53.22
2018-04-15T03:17:20.947Z,53.31
2018-04-15T03:18:29.774Z,52.93
2018-04-15T03:19:38.604Z,53.12
2018-04-15T03:20:47.434Z,53.5
2018-04-15T03:21:56.573Z,53.22
2018-04-15T03:23:05.677Z,52.93
2018-04-15T03:24:14.506Z,53.12
2018-04-15T03:25:23.615Z,53.12
2018-04-15T03:26:32.441Z,51.89
2018-04-15T03:27:41.472Z,52.26
2018-04-15T03:28:50.310Z,52.55
2018-04-15T03:29:59.142Z,52.84
2018-04-15T03:31:07.975Z,52.74
2018-04-15T03:32:17.095Z,53.22
2018-04-15T03:33:26.352Z,53.31
2018-04-15T03:34:35.182Z,53.41
2018-04-15T03:35:44.010Z,53.22
2018-04-15T03:36:52.841Z,53.12
2018-04-15T03:38:01.677Z,52.84
2018-04-15T03:39:11.101Z,52.93
2018-04-15T03:40:19.935Z,53.12
2018-04-15T03:41:29.317Z,52.64
2018-04-15T03:42:38.148Z,52.45
2018-04-15T03:43:46.980Z,52.08
2018-04-15T03:44:56.260Z,52.17
2018-04-15T03:46:05.094Z,52.17
2018-04-15T03:47:14.470Z,52.84
2018-04-15T03:48:23.302Z,52.26
2018-04-15T03:49:32.132Z,52.17
2018-04-15T03:50:40.964Z,52.17
2018-04-15T03:51:50.074Z,52.36
2018-04-15T03:52:58.905Z,52.64
2018-04-15T03:54:07.740Z,52.08
2018-04-15T03:55:16.570Z,52.08
2018-04-15T03:56:25.402Z,52.17
2018-04-15T03:57:34.226Z,52.26
2018-04-15T03:58:43.330Z,51.98
2018-04-15T03:59:52.161Z,52.26
2018-04-15T04:01:00.991Z,52.64
2018-04-15T04:02:09.970Z,52.08
2018-04-15T04:03:19.073Z,52.17
2018-04-15T04:04:27.955Z,52.17
2018-04-15T04:05:36.784Z,52.26
2018-04-15T04:06:45.887Z,52.55
2018-04-15T04:07:54.712Z,52.08
2018-04-15T04:09:04.096Z,51.51
2018-04-15T04:10:12.924Z,51.51
2018-04-15T04:11:21.757Z,51.51
2018-04-15T04:12:30.587Z,51.89
2018-04-15T04:13:39.469Z,52.08
2018-04-15T04:14:48.584Z,51.89
2018-04-15T04:15:57.413Z,51.82
2018-04-15T04:17:06.243Z,51.98
2018-04-15T04:18:15.072Z,51.43
2018-04-15T04:19:23.906Z,51.72
2018-04-15T04:20:32.738Z,52.01
2018-04-15T04:21:41.567Z,52.1
2018-04-15T04:22:50.394Z,52.1
2018-04-15T04:23:59.502Z,51.91
2018-04-15T04:25:08.607Z,51.82
2018-04-15T04:26:17.440Z,51.91
2018-04-15T04:27:26.272Z,52.2
2018-04-15T04:28:35.376Z,52.29
2018-04-15T04:29:44.208Z,52.01
2018-04-15T04:30:53.034Z,51.82
2018-04-15T04:32:01.862Z,52.39
2018-04-15T04:33:10.693Z,52.1
2018-04-15T04:34:19.523Z,52.1
2018-04-15T04:35:28.906Z,51.62
2018-04-15T04:36:37.786Z,52.01
2018-04-15T04:37:46.900Z,51.91
2018-04-15T04:38:56.002Z,52.2
2018-04-15T04:40:04.833Z,52.1
2018-04-15T04:41:13.665Z,51.91
2018-04-15T04:42:22.494Z,52.29
2018-04-15T04:43:31.324Z,52.58
2018-04-15T04:44:40.434Z,52.48
2018-04-15T04:45:49.543Z,52.76
2018-04-15T04:46:58.374Z,52.1
2018-04-15T04:48:07.211Z,52.2
2018-04-15T04:49:16.039Z,52.48
2018-04-15T04:50:24.872Z,51.91
2018-04-15T04:51:33.704Z,51.62
2018-04-15T04:52:42.534Z,52.01
2018-04-15T04:53:51.413Z,52.2
2018-04-15T04:55:00.244Z,52.96
2018-04-15T04:56:09.074Z,52.1
2018-04-15T04:57:17.903Z,51.82
2018-04-15T04:58:26.733Z,52.1
2018-04-15T04:59:36.138Z,52.2
2018-04-15T05:00:45.246Z,52.67
2018-04-15T05:01:54.078Z,52.2
2018-04-15T05:03:02.907Z,52.39
2018-04-15T05:04:11.766Z,52.2
2018-04-15T05:05:20.971Z,52.2
2018-04-15T05:06:30.127Z,52.01
2018-04-15T05:07:39.020Z,52.1
2018-04-15T05:08:48.060Z,51.82
2018-04-15T05:09:56.924Z,52.1
2018-04-15T05:11:06.043Z,51.34
2018-04-15T05:12:14.871Z,51.82
2018-04-15T05:13:23.705Z,52.01
2018-04-15T05:14:32.541Z,52.1
2018-04-15T05:15:41.382Z,52.1
2018-04-15T05:16:50.294Z,51.34
2018-04-15T05:17:59.126Z,51.53
2018-04-15T05:19:07.957Z,51.43
2018-04-15T05:20:16.791Z,52.1
2018-04-15T05:21:25.618Z,51.53
2018-04-15T05:22:34.598Z,51.34
2018-04-15T05:23:43.428Z,51.72
2018-04-15T05:24:52.264Z,50.2
2018-04-15T05:26:01.096Z,49.15
2018-04-15T05:27:09.927Z,49.35
2018-04-15T05:28:18.809Z,49.44
2018-04-15T05:29:27.642Z,50.1
2018-04-15T05:30:36.474Z,49.73
2018-04-15T05:31:45.304Z,46.2
2018-04-15T05:32:54.416Z,47.54
2018-04-15T05:34:03.347Z,47.34
2018-04-15T05:35:12.447Z,47.44
2018-04-15T05:36:21.276Z,47.54
2018-04-15T05:37:30.131Z,47.54
2018-04-15T05:38:39.221Z,47.73
2018-04-15T05:39:48.200Z,48.11
2018-04-15T05:40:57.306Z,48.3
2018-04-15T05:42:06.140Z,48.77
2018-04-15T05:43:14.972Z,49.44
2018-04-15T05:44:23.805Z,49.06
2018-04-15T05:45:32.635Z,49.73
2018-04-15T05:46:41.465Z,49.44
2018-04-15T05:47:50.296Z,50.1
2018-04-15T05:48:59.130Z,49.82
2018-04-15T05:50:07.959Z,50.2
2018-04-15T05:51:16.791Z,49.82
2018-04-15T05:52:25.899Z,48.68
2018-04-15T05:53:34.731Z,47.73
2018-04-15T05:54:43.561Z,47.82
2018-04-15T05:55:52.392Z,47.73
2018-04-15T05:57:01.500Z,47.25
2018-04-15T05:58:10.332Z,45.83
2018-04-15T05:59:19.454Z,45.54
2018-04-15T06:00:28.296Z,45.35
2018-04-15T06:01:37.410Z,44.4
2018-04-15T06:02:46.516Z,42.97
2018-04-15T06:03:55.352Z,41.55
2018-04-15T06:05:04.183Z,41.19
2018-04-15T06:06:13.016Z,40.43
2018-04-15T06:07:21.848Z,40.05
2018-04-15T06:08:30.954Z,40.03
2018-04-15T06:09:39.831Z,40.43
2018-04-15T06:10:48.662Z,40.12
2018-04-15T06:11:57.492Z,39.57
2018-04-15T06:13:06.889Z,40.05
2018-04-15T06:14:15.718Z,40.14
2018-04-15T06:15:24.827Z,40.05
2018-04-15T06:16:33.658Z,39.19
2018-04-15T06:17:42.491Z,39.19
2018-04-15T06:18:51.323Z,39.67
2018-04-15T06:20:00.154Z,39.19
2018-04-15T06:21:08.984Z,38.53
2018-04-15T06:22:18.090Z,37.48
2018-04-15T06:23:26.918Z,38.14
2018-04-15T06:24:36.137Z,38.34
2018-04-15T06:25:44.987Z,38.43
2018-04-15T06:26:53.818Z,38.05
2018-04-15T06:28:03.201Z,38.24
2018-04-15T06:29:12.038Z,37.48
2018-04-15T06:30:20.863Z,38.05
2018-04-15T06:31:29.696Z,37.38
2018-04-15T06:32:38.527Z,37.38
2018-04-15T06:33:47.365Z,36.72
2018-04-15T06:34:56.466Z,36.33
2018-04-15T06:36:05.297Z,36.72
2018-04-15T06:37:14.225Z,35.19
2018-04-15T06:38:23.059Z,33.48
2018-04-15T06:39:32.170Z,33.58
2018-04-15T06:40:41.270Z,33.48
2018-04-15T06:41:50.100Z,33.29
2018-04-15T06:42:59.235Z,32.91
2018-04-15T06:44:08.064Z,32.43
2018-04-15T06:45:16.915Z,32.53
2018-04-15T06:46:26.372Z,32.34
2018-04-15T06:47:35.480Z,32.24
2018-04-15T06:48:44.615Z,32.24
2018-04-15T06:49:53.717Z,32.06
2018-04-15T06:51:02.545Z,31.58
2018-04-15T06:52:11.378Z,31.01
2018-04-15T06:53:20.213Z,30.73
2018-04-15T06:54:29.189Z,29.86
2018-04-15T06:55:38.020Z,29.2
2018-04-15T06:56:46.851Z,28.34
2018-04-15T06:57:55.680Z,28.53
2018-04-15T06:59:04.513Z,28.06
2018-04-15T07:00:13.965Z,26.35
2018-04-15T07:01:22.796Z,26.82
2018-04-15T07:02:31.628Z,26.16
2018-04-15T07:03:40.463Z,27.01
2018-04-15T07:04:49.296Z,27.49
2018-04-15T07:05:58.133Z,27.78
2018-04-15T07:07:07.241Z,27.78
2018-04-15T07:08:16.070Z,27.78
2018-04-15T07:09:24.901Z,27.87
2018-04-15T07:10:33.735Z,27.97
2018-04-15T07:11:42.572Z,28.53
2018-04-15T07:12:51.403Z,27.97
2018-04-15T07:14:00.782Z,27.68
2018-04-15T07:15:09.893Z,27.78
2018-04-15T07:16:19.013Z,27.78
2018-04-15T07:17:27.997Z,28.44
2018-04-15T07:18:36.830Z,28.34
2018-04-15T07:19:45.668Z,27.49
2018-04-15T07:20:54.775Z,28.06
2018-04-15T07:22:03.607Z,28.25
2018-04-15T07:23:13.013Z,28.44
2018-04-15T07:24:21.847Z,27.97
2018-04-15T07:25:30.679Z,27.87
2018-04-15T07:26:39.512Z,27.49
2018-04-15T07:27:48.620Z,27.2
2018-04-15T07:28:57.502Z,27.87
2018-04-15T07:30:06.335Z,27.87
2018-04-15T07:31:15.444Z,29.3
2018-04-15T07:32:24.555Z,29.68
2018-04-15T07:33:33.384Z,29.49
2018-04-15T07:34:42.468Z,29.11
2018-04-15T07:35:51.298Z,29.2
2018-04-15T07:37:00.131Z,28.63
2018-04-15T07:38:08.962Z,28.36
2018-04-15T07:39:17.792Z,27.98
2018-04-15T07:40:26.675Z,27.98
2018-04-15T07:41:35.781Z,27.6
2018-04-15T07:42:44.610Z,27.79
2018-04-15T07:43:53.445Z,28.36
2018-04-15T07:45:02.283Z,27.79
2018-04-15T07:46:11.262Z,27.5
2018-04-15T07:47:20.383Z,29.12
2018-04-15T07:48:29.285Z,29.98
2018-04-15T07:49:38.116Z,29.03
2018-04-15T07:50:46.953Z,27.98
2018-04-15T07:51:55.784Z,27.88
2018-04-15T07:53:04.890Z,28.36
2018-04-15T07:54:14.016Z,28.55
2018-04-15T07:55:23.130Z,28.64
2018-04-15T07:56:31.961Z,29.12
2018-04-15T07:57:40.807Z,29.22
2018-04-15T07:58:49.922Z,29.41
2018-04-15T07:59:58.756Z,31.21
2018-04-15T08:01:07.868Z,30.34
2018-04-15T08:02:16.985Z,29.11
2018-04-15T08:03:26.095Z,29.31
2018-04-15T08:04:34.927Z,29.79
2018-04-15T08:05:43.763Z,30.34
2018-04-15T08:06:52.592Z,30.07
2018-04-15T08:08:01.429Z,29.41
2018-04-15T08:09:10.536Z,29.86
2018-04-15T08:10:19.370Z,29.31
2018-04-15T08:11:28.209Z,28.63
2018-04-15T08:12:37.032Z,29.69
2018-04-15T08:13:46.138Z,30.36
2018-04-15T08:14:54.972Z,28.82
2018-04-15T08:16:04.081Z,29.5
2018-04-15T08:17:13.523Z,29.01
2018-04-15T08:18:22.634Z,28.27
2018-04-15T08:19:32.021Z,29.31
2018-04-15T08:20:41.129Z,28.63
2018-04-15T08:21:50.236Z,28.55
2018-04-15T08:22:59.373Z,28.82
2018-04-15T08:24:08.207Z,28.27
2018-04-15T08:25:17.362Z,28.27
2018-04-15T08:26:26.147Z,27.6
2018-04-15T08:27:35.266Z,27.69
2018-04-15T08:28:44.537Z,28.74
2018-04-15T08:29:53.370Z,29.41
2018-04-15T08:31:02.203Z,28.55
2018-04-15T08:32:11.040Z,28.08
2018-04-15T08:33:19.865Z,27.5
2018-04-15T08:34:28.798Z,27.6
2018-04-15T08:35:37.631Z,28.08
2018-04-15T08:36:46.469Z,28.17
2018-04-15T08:37:55.582Z,27.31
2018-04-15T08:39:04.417Z,28.83
2018-04-15T08:40:13.249Z,28.45
2018-04-15T08:41:22.083Z,28.36
2018-04-15T08:42:30.916Z,27.69
2018-04-15T08:43:39.800Z,27.69
2018-04-15T08:44:48.907Z,28.64
2018-04-15T08:45:58.042Z,28.27
2018-04-15T08:47:06.872Z,28.36
2018-04-15T08:48:15.702Z,27.79
2018-04-15T08:49:24.535Z,27.41
2018-04-15T08:50:33.368Z,27.03
2018-04-15T08:51:42.504Z,26.93
2018-04-15T08:52:51.338Z,26.65
2018-04-15T08:54:00.170Z,26.93
2018-04-15T08:55:09.003Z,26.84
2018-04-15T08:56:17.839Z,26.74
2018-04-15T08:57:26.951Z,26.74
2018-04-15T08:58:36.332Z,26.46
2018-04-15T08:59:45.168Z,27.03
2018-04-15T09:00:54.005Z,26.74
2018-04-15T09:02:03.113Z,27.12
2018-04-15T09:03:11.955Z,27.03
2018-04-15T09:04:20.780Z,26.36
2018-04-15T09:05:29.615Z,26.55
2018-04-15T09:06:38.496Z,26.84
2018-04-15T09:07:47.330Z,26.36
2018-04-15T09:08:56.263Z,26.46
2018-04-15T09:10:05.098Z,27.03
2018-04-15T09:11:13.931Z,27.12
2018-04-15T09:12:23.049Z,26.55
2018-04-15T09:13:32.434Z,26.74
2018-04-15T09:14:41.842Z,26.74
2018-04-15T09:15:50.678Z,26.84
2018-04-15T09:16:59.511Z,26.93
2018-04-15T09:18:08.633Z,26.07
2018-04-15T09:19:17.837Z,26.36
2018-04-15T09:20:26.873Z,25.98
2018-04-15T09:21:35.706Z,24.93
2018-04-15T09:22:44.589Z,24.93
2018-04-15T09:23:53.423Z,25.41
2018-04-15T09:25:02.254Z,25.41
2018-04-15T09:26:11.087Z,24.57
2018-04-15T09:27:19.920Z,25.03
2018-04-15T09:28:29.052Z,25.13
2018-04-15T09:29:37.904Z,25.42
2018-04-15T09:30:46.718Z,25.42
2018-04-15T09:31:55.614Z,25.61
2018-04-15T09:33:04.453Z,25.04
2018-04-15T09:34:13.279Z,24.18
2018-04-15T09:35:22.113Z,25.33
2018-04-15T09:36:30.950Z,25.42
2018-04-15T09:37:39.833Z,25.13
2018-04-15T09:38:48.668Z,25.23
2018-04-15T09:39:57.777Z,24.95
2018-04-15T09:41:07.260Z,25.42
2018-04-15T09:42:16.423Z,25.23
2018-04-15T09:43:25.619Z,24.18
2018-04-15T09:44:34.460Z,24.18
2018-04-15T09:45:43.293Z,23.99
2018-04-15T09:46:52.133Z,24.09
2018-04-15T09:48:01.237Z,24.28
2018-04-15T09:49:10.219Z,25.13
2018-04-15T09:50:19.053Z,25.04
2018-04-15T09:51:28.171Z,25.13
2018-04-15T09:52:37.060Z,24.85
2018-04-15T09:53:46.178Z,25.23
2018-04-15T09:54:55.159Z,25.52
2018-04-15T09:56:04.267Z,25.23
2018-04-15T09:57:13.374Z,25.23
2018-04-15T09:58:22.210Z,25.04
2018-04-15T09:59:31.044Z,25.43
2018-04-15T10:00:39.881Z,25.15
2018-04-15T10:01:48.720Z,26.28
2018-04-15T10:02:57.584Z,25.23
2018-04-15T10:04:06.692Z,24.76
2018-04-15T10:05:15.530Z,24.66
2018-04-15T10:06:24.363Z,24.66
2018-04-15T10:07:33.194Z,24.66
2018-04-15T10:08:42.030Z,24.19
2018-04-15T10:09:50.863Z,24.58
2018-04-15T10:10:59.981Z,24.19
2018-04-15T10:12:09.096Z,24.58
2018-04-15T10:13:18.211Z,24.87
2018-04-15T10:14:27.039Z,24.77
2018-04-15T10:15:36.157Z,25.24
2018-04-15T10:16:44.992Z,24.87
2018-04-15T10:17:53.862Z,23.53
2018-04-15T10:19:02.696Z,23.82
2018-04-15T10:20:11.529Z,23.34
2018-04-15T10:21:20.398Z,23.15
2018-04-15T10:22:29.279Z,23.82
2018-04-15T10:23:38.256Z,23.72
2018-04-15T10:24:47.089Z,23.82
2018-04-15T10:25:56.197Z,23.53
2018-04-15T10:27:05.534Z,23.05
2018-04-15T10:28:14.418Z,23.53
2018-04-15T10:29:23.772Z,23.63
2018-04-15T10:30:32.883Z,22.86
2018-04-15T10:31:42.271Z,23.43
2018-04-15T10:32:51.102Z,22.86
2018-04-15T10:33:59.934Z,23.15
2018-04-15T10:35:08.918Z,22.67
2018-04-15T10:36:18.304Z,23.63
2018-04-15T10:37:27.413Z,23.24
2018-04-15T10:38:36.527Z,22.67
2018-04-15T10:39:45.653Z,22.19
2018-04-15T10:40:54.649Z,22.19
2018-04-15T10:42:03.486Z,22.58
2018-04-15T10:43:12.866Z,22.02
2018-04-15T10:44:21.696Z,23.16
2018-04-15T10:45:30.530Z,23.15
2018-04-15T10:46:39.637Z,22.67
2018-04-15T10:47:48.473Z,22.96
2018-04-15T10:48:57.580Z,22.77
2018-04-15T10:50:06.686Z,22.77
2018-04-15T10:51:15.522Z,23.34
2018-04-15T10:52:24.934Z,22.77
2018-04-15T10:53:34.042Z,22.39
2018-04-15T10:54:42.930Z,21.81
2018-04-15T10:55:51.708Z,21.44
2018-04-15T10:57:00.549Z,21.16
2018-04-15T10:58:09.484Z,21.24
2018-04-15T10:59:18.318Z,21.16
2018-04-15T11:00:27.169Z,20.87
2018-04-15T11:01:36.002Z,21.44
2018-04-15T11:02:44.835Z,21.16
2018-04-15T11:03:54.252Z,21.06
2018-04-15T11:05:03.080Z,20.59
2018-04-15T11:06:11.915Z,21.16
2018-04-15T11:07:21.032Z,20.87
2018-04-15T11:08:30.141Z,20.97
2018-04-15T11:09:39.403Z,21.54
2018-04-15T11:10:48.237Z,21.35
2018-04-15T11:11:57.627Z,21.35
2018-04-15T11:13:06.749Z,21.44
2018-04-15T11:14:15.581Z,21.35
2018-04-15T11:15:24.745Z,20.78
2018-04-15T11:16:33.581Z,20.78
2018-04-15T11:17:42.411Z,20.87
2018-04-15T11:18:51.245Z,20.87
2018-04-15T11:20:00.139Z,20.98
2018-04-15T11:21:09.347Z,20.59
2018-04-15T11:22:18.454Z,20.11
2018-04-15T11:23:27.287Z,20.21
2018-04-15T11:24:36.732Z,20.21
2018-04-15T11:25:45.566Z,20.88
2018-04-15T11:26:54.401Z,20.79
2018-04-15T11:28:03.235Z,20.79
2018-04-15T11:29:12.080Z,20.88
2018-04-15T11:30:20.905Z,20.98
2018-04-15T11:31:29.736Z,21.26
2018-04-15T11:32:38.621Z,20.79
2018-04-15T11:33:47.455Z,21.08
2018-04-15T11:34:56.290Z,21.64
2018-04-15T11:36:05.121Z,22.23
2018-04-15T11:37:13.955Z,21.56
2018-04-15T11:38:23.055Z,22.04
2018-04-15T11:39:32.156Z,23.94
2018-04-15T11:40:40.991Z,24.71
2018-04-15T11:41:49.827Z,25.47
2018-04-15T11:42:58.663Z,25.19
2018-04-15T11:44:07.924Z,26.24
2018-04-15T11:45:17.099Z,25.38
2018-04-15T11:46:26.146Z,25.47
2018-04-15T11:47:34.982Z,28.53
2018-04-15T11:48:43.818Z,28.05
2018-04-15T11:49:53.251Z,26.9
2018-04-15T11:51:02.113Z,26.06
2018-04-15T11:52:11.782Z,25.68
2018-04-15T11:53:20.620Z,25.77
2018-04-15T11:54:29.727Z,27.97
2018-04-15T11:55:38.563Z,30.85
2018-04-15T11:56:47.398Z,29.97
2018-04-15T11:57:56.236Z,30.56
2018-04-15T11:59:05.071Z,36.1
2018-04-15T12:00:13.909Z,36.39
2018-04-15T12:01:22.744Z,34.57
2018-04-15T12:02:31.859Z,33.81
2018-04-15T12:03:40.697Z,32.09
2018-04-15T12:04:50.172Z,34.77
2018-04-15T12:05:59.358Z,42.14
2018-04-15T12:07:08.477Z,40.52
2018-04-15T12:08:17.314Z,44.05
2018-04-15T12:09:26.156Z,43.29
2018-04-15T12:10:34.995Z,42.24
2018-04-15T12:11:43.845Z,48.16
2018-04-15T12:12:53.382Z,50.86
2018-04-15T12:14:02.519Z,51.53
2018-04-15T12:15:11.365Z,50.38
2018-04-15T12:16:20.471Z,55.64
2018-04-15T12:17:29.331Z,52.65
2018-04-15T12:18:38.630Z,53.8
2018-04-15T12:19:47.467Z,53.8
2018-04-15T12:20:56.593Z,54.08
2018-04-15T12:22:05.474Z,55.16
2018-04-15T12:23:14.866Z,55.16
2018-04-15T12:24:23.967Z,53.82
2018-04-15T12:25:33.316Z,52.1
2018-04-15T12:26:42.163Z,51.53
2018-04-15T12:27:50.998Z,51.65
2018-04-15T12:29:00.112Z,54.43
2018-04-15T12:30:09.113Z,54.74
2018-04-15T12:31:18.234Z,61.91
2018-04-15T12:32:27.074Z,66.61
2018-04-15T12:33:36.207Z,66.61
2018-04-15T12:34:45.343Z,66.89
2018-04-15T12:35:54.293Z,68.07
2018-04-15T12:37:03.077Z,69.86
2018-04-15T12:38:12.195Z,67.66
2018-04-15T12:39:21.037Z,65.74
2018-04-15T12:40:29.882Z,68.07
2018-04-15T12:41:39.321Z,72.09
2018-04-15T12:42:48.723Z,61.37
2018-04-15T12:43:57.561Z,69.89
2018-04-15T12:45:06.681Z,74.77
2018-04-15T12:46:15.529Z,74.3
2018-04-15T12:47:24.427Z,75.35
2018-04-15T12:48:33.542Z,74.77
2018-04-15T12:49:42.383Z,75.93
2018-04-15T12:50:51.450Z,74.2
2018-04-15T12:52:00.583Z,74.77
2018-04-15T12:53:09.537Z,75.16
2018-04-15T12:54:18.379Z,73.63
2018-04-15T12:55:27.304Z,74.05
2018-04-15T12:56:36.145Z,75.58
2018-04-15T12:57:45.269Z,76.44
2018-04-15T12:58:54.497Z,79.22
2018-04-15T13:00:03.344Z,76.73
2018-04-15T13:01:12.184Z,80.08
2018-04-15T13:02:21.027Z,81.75
2018-04-15T13:03:29.875Z,83.09
2018-04-15T13:04:38.724Z,86.54
2018-04-15T13:05:47.567Z,84.05
2018-04-15T13:06:56.689Z,85.68
2018-04-15T13:08:05.532Z,83.23
2018-04-15T13:09:14.375Z,89.75
2018-04-15T13:10:23.222Z,89.04
2018-04-15T13:11:32.065Z,87.02
2018-04-15T13:12:40.909Z,88.84
2018-04-15T13:13:49.753Z,89.42
2018-04-15T13:14:58.595Z,89.9
2018-04-15T13:16:07.441Z,86.93
2018-04-15T13:17:16.564Z,90.42
2018-04-15T13:18:25.410Z,89.42
2018-04-15T13:19:34.253Z,88.31
2018-04-15T13:20:43.098Z,89.94
2018-04-15T13:21:52.092Z,90.23
2018-04-15T13:23:00.935Z,90.23
2018-04-15T13:24:09.778Z,90.42
2018-04-15T13:25:18.621Z,90.71
2018-04-15T13:26:27.736Z,88.6
2018-04-15T13:27:36.628Z,90.66
2018-04-15T13:28:45.479Z,91.05
2018-04-15T13:29:54.331Z,92
2018-04-15T13:31:03.186Z,92.77
2018-04-15T13:32:12.040Z,91.24
2018-04-15T13:33:21.267Z,89.12
2018-04-15T13:34:30.161Z,93.54
2018-04-15T13:35:39.004Z,92.58
2018-04-15T13:36:47.849Z,94.02
2018-04-15T13:37:56.698Z,92.91
2018-04-15T13:39:05.642Z,93.49
2018-04-15T13:40:14.763Z,92.63
2018-04-15T13:41:23.918Z,94.07
2018-04-15T13:42:33.043Z,93.44
2018-04-15T13:43:41.890Z,93.44
2018-04-15T13:44:50.884Z,93.25
2018-04-15T13:45:59.727Z,93.63
2018-04-15T13:47:08.568Z,93.44
2018-04-15T13:48:17.411Z,93.82
2018-04-15T13:49:26.257Z,93.54
2018-04-15T13:50:35.352Z,94.54
2018-04-15T13:51:44.193Z,93.77
2018-04-15T13:52:53.037Z,93.49
2018-04-15T13:54:02.156Z,93.87
2018-04-15T13:55:11.050Z,94.64
2018-04-15T13:56:20.044Z,93.59
2018-04-15T13:57:28.897Z,94.4
2018-04-15T13:58:37.742Z,94.16
2018-04-15T13:59:46.584Z,94.4
2018-04-15T14:00:55.429Z,95.12
2018-04-15T14:02:04.648Z,95.6
2018-04-15T14:03:13.493Z,95.21
2018-04-15T14:04:22.619Z,94.93
2018-04-15T14:05:31.462Z,95.41
2018-04-15T14:06:40.308Z,95.12
2018-04-15T14:07:49.156Z,95.36
2018-04-15T14:08:58.000Z,95.5
2018-04-15T14:10:06.836Z,94.74
2018-04-15T14:11:15.680Z,95.89
2018-04-15T14:12:24.529Z,95.5
2018-04-15T14:13:33.472Z,92.33
2018-04-15T14:14:42.591Z,95.36
2018-04-15T14:15:51.435Z,95.75
2018-04-15T14:17:00.276Z,95.65
2018-04-15T14:18:09.120Z,94.98
2018-04-15T14:19:18.203Z,95.55
2018-04-15T14:20:27.421Z,95.65
2018-04-15T14:21:36.266Z,96.27
2018-04-15T14:22:45.391Z,95.55
2018-04-15T14:23:54.526Z,96.75
2018-04-15T14:25:03.610Z,96.08
2018-04-15T14:26:12.736Z,96.7
2018-04-15T14:27:21.881Z,96.37
2018-04-15T14:28:31.550Z,96.37
2018-04-15T14:29:40.396Z,97.28
2018-04-15T14:30:49.487Z,97.38
2018-04-15T14:31:58.331Z,96.99
2018-04-15T14:33:07.173Z,97.19
2018-04-15T14:34:16.018Z,96.99
2018-04-15T14:35:25.131Z,97.04
2018-04-15T14:36:34.072Z,97.42
2018-04-15T14:37:42.915Z,97.52
2018-04-15T14:38:51.756Z,97.33
2018-04-15T14:40:00.597Z,97.42
2018-04-15T14:41:09.437Z,97.23
2018-04-15T14:42:18.713Z,96.94
2018-04-15T14:43:27.827Z,97.23
2018-04-15T14:44:36.692Z,96.56
2018-04-15T14:45:45.537Z,96.94
2018-04-15T14:46:54.373Z,97.23
2018-04-15T14:48:03.365Z,97.18
2018-04-15T14:49:12.203Z,97.28
2018-04-15T14:50:21.047Z,97.09
2018-04-15T14:51:30.165Z,97.23